Weather History for K3T5 - January, 2013

Change the Weather History Date:

Tuesday, January 15, 2013

  Actual Average (KAUS) Record (KAUS)
Temperature  
Mean Temperature 40 °F 49 °F  
Max Temperature 44 °F 62 °F 78 °F (1990)
Min Temperature 37 °F 36 °F 17 °F (1944)
Degree Days  
Heating Degree Days 24 16  
Month to date heating degree days 240  
Since 1 July heating degree days 987  
Cooling Degree Days 0 0  
Month to date cooling degree days 0  
Year to date cooling degree days 0  
Moisture  
Dew Point 36 °F    
Average Humidity 90    
Maximum Humidity 100    
Minimum Humidity 70    
Precipitation  
Precipitation 0.00 in 0.07 in 1.32 in (2010)
Month to date precipitation 1.10  
Year to date precipitation 1.10  
Snow  
Snow 0.00 in - - ()
Month to date snowfall  
Since 1 July snowfall  
Snow Depth -    
Sea Level Pressure  
Sea Level Pressure 30.12 in    
Wind  
Wind Speed 8 mph (North)    
Max Wind Speed 16 mph    
Max Gust Speed 23 mph    
Visibility 8 miles    
Events Snow    
T = Trace of Precipitation, MM = Missing Value Source: NWS Daily Summary

Daily Weather History Graph

Daily Weather History Graph

Search for Another Location

Airport or City:

Trip Planner

Search our weather history database for the weather conditions in past years. The results will help you decide how hot, cold, wet, or windy it might be!

Date:

Astronomy

Jan. 15, 2013 Rise Set
Actual Time 7:24 AM CST 5:50 PM CST
Civil Twilight 6:58 AM CST 6:16 PM CST
Nautical Twilight 6:29 AM CST 6:45 PM CST
Astronomical Twilight 6:00 AM CST 7:14 PM CST
Moon 9:53 AM CST (1/15) 10:16 PM CST (1/15)
Length of Visible Light 11h 18m
Length of Day
10h 26m
Waxing Crescent, 19% of the Moon is Illuminated
Jan 15
Waxing Crescent
Jan 18
First Quarter
Jan 26
Full
Feb 3
Last Quarter
Feb 10
New

Hourly Weather History & Observations

Time (CST) Temp. Windchill Dew Point Humidity Pressure Visibility Wind Dir Wind Speed Gust Speed Precip Events Conditions
12:15 AM 44.6 °F 41.4 °F 37.4 °F 76% 30.08 in 10.0 mi NE 5.8 mph - N/A   Overcast
12:35 AM 44.6 °F 41.4 °F 37.4 °F 76% 30.07 in 10.0 mi NE 5.8 mph - N/A   Scattered Clouds
12:55 AM 44.6 °F 42.2 °F 37.4 °F 76% 30.08 in 10.0 mi NE 4.6 mph - N/A   Mostly Cloudy
1:35 AM 42.8 °F 39.3 °F 39.2 °F 87% 30.08 in 10.0 mi NNE 5.8 mph - N/A   Overcast
1:55 AM 42.8 °F 39.3 °F 39.2 °F 87% 30.09 in 7.0 mi North 5.8 mph - N/A   Drizzle
2:15 AM 42.8 °F 40.1 °F 39.2 °F 87% 30.09 in 5.0 mi North 4.6 mph - N/A   Drizzle
2:35 AM 41.0 °F 37.1 °F 41.0 °F 100% 30.09 in 4.0 mi North 5.8 mph - N/A   Drizzle
2:55 AM 41.0 °F 37.1 °F 39.2 °F 93% 30.09 in 3.0 mi North 5.8 mph - N/A   Drizzle
3:15 AM 41.0 °F 37.1 °F 39.2 °F 93% 30.08 in 4.0 mi North 5.8 mph - N/A   Light Drizzle
3:35 AM 41.0 °F 35.2 °F 39.2 °F 93% 30.09 in 3.0 mi North 9.2 mph - N/A   Drizzle
3:55 AM 41.0 °F 38.0 °F 37.4 °F 87% 30.09 in 3.0 mi North 4.6 mph - N/A   Drizzle
4:15 AM 41.0 °F 36.4 °F 39.2 °F 93% 30.08 in 4.0 mi North 6.9 mph - N/A   Drizzle
4:35 AM 41.0 °F 36.4 °F 37.4 °F 87% 30.08 in 5.0 mi North 6.9 mph - N/A   Unknown
5:15 AM 39.2 °F 34.2 °F 37.4 °F 93% 30.10 in 4.0 mi North 6.9 mph - N/A   Unknown
5:35 AM 39.2 °F 34.2 °F 37.4 °F 93% 30.10 in 4.0 mi North 6.9 mph - N/A   Unknown
5:55 AM 37.4 °F 32.8 °F 37.4 °F 100% 30.11 in 5.0 mi North 5.8 mph - N/A   Drizzle
6:15 AM 37.4 °F 32.1 °F 37.4 °F 100% 30.10 in 4.0 mi NNE 6.9 mph - N/A Snow Snow
6:35 AM 37.4 °F 32.1 °F 37.4 °F 100% 30.11 in 5.0 mi North 6.9 mph - N/A   Drizzle
6:55 AM 37.4 °F 32.8 °F 37.4 °F 100% 30.12 in 4.0 mi North 5.8 mph - N/A Snow Snow
7:15 AM 37.4 °F 32.8 °F 37.4 °F 100% 30.12 in 5.0 mi North 5.8 mph - N/A   Light Drizzle
7:35 AM 37.4 °F 31.4 °F 37.4 °F 100% 30.12 in 5.0 mi North 8.1 mph - N/A   Light Drizzle
7:55 AM 37.4 °F 32.1 °F 35.6 °F 93% 30.12 in 5.0 mi North 6.9 mph - N/A   Light Drizzle
8:15 AM 37.4 °F 32.1 °F 35.6 °F 93% 30.12 in 10.0 mi North 6.9 mph - N/A   Mostly Cloudy
8:35 AM 37.4 °F 32.1 °F 35.6 °F 93% 30.13 in 10.0 mi North 6.9 mph - N/A   Mostly Cloudy
8:55 AM 37.4 °F 32.8 °F 35.6 °F 93% 30.13 in - NNE 5.8 mph - N/A   Overcast
9:15 AM 37.4 °F 32.1 °F 35.6 °F 93% 30.14 in 10.0 mi North 6.9 mph - N/A   Overcast
9:35 AM 37.4 °F 32.1 °F 35.6 °F 93% 30.15 in 7.0 mi North 6.9 mph - N/A Snow Light Snow
9:55 AM 37.4 °F 32.1 °F 35.6 °F 93% 30.15 in 5.0 mi North 6.9 mph - N/A Snow Light Snow
10:15 AM 37.4 °F 30.8 °F 35.6 °F 93% 30.15 in 5.0 mi North 9.2 mph - N/A   Overcast
10:35 AM 37.4 °F 31.4 °F 35.6 °F 93% 30.13 in 10.0 mi North 8.1 mph - N/A   Overcast
10:55 AM 37.4 °F 30.8 °F 35.6 °F 93% 30.12 in 10.0 mi North 9.2 mph - N/A   Overcast
11:15 AM 37.4 °F 29.8 °F 35.6 °F 93% 30.12 in 10.0 mi North 11.5 mph 18.4 mph N/A   Overcast
11:35 AM 37.4 °F 31.4 °F 35.6 °F 93% 30.12 in 10.0 mi North 8.1 mph - N/A   Overcast
11:55 AM 37.4 °F 32.1 °F 35.6 °F 93% 30.10 in 10.0 mi North 6.9 mph - N/A   Overcast
12:15 PM 37.4 °F 29.8 °F 35.6 °F 93% 30.11 in 10.0 mi North 11.5 mph - N/A   Overcast
12:35 PM 37.4 °F 29.3 °F 35.6 °F 93% 30.09 in 10.0 mi NNW 12.7 mph 17.3 mph N/A   Overcast
1:15 PM 37.4 °F 29.8 °F 35.6 °F 93% 30.08 in 10.0 mi NNW 11.5 mph 17.3 mph N/A   Overcast
1:35 PM 37.4 °F 29.8 °F 35.6 °F 93% 30.08 in 10.0 mi North 11.5 mph 16.1 mph N/A   Overcast
1:55 PM 37.4 °F 28.5 °F 35.6 °F 93% 30.08 in 10.0 mi NNW 15.0 mph - N/A   Overcast
2:15 PM 37.4 °F 29.3 °F 35.6 °F 93% 30.09 in 10.0 mi NNW 12.7 mph - N/A   Overcast
2:35 PM 37.4 °F 30.8 °F 35.6 °F 93% 30.09 in 10.0 mi North 9.2 mph - N/A   Overcast
2:55 PM 37.4 °F 30.3 °F 35.6 °F 93% 30.08 in 10.0 mi North 10.4 mph 17.3 mph N/A   Overcast
3:35 PM 37.4 °F 28.9 °F 35.6 °F 93% 30.09 in 10.0 mi North 13.8 mph - N/A   Overcast
3:55 PM 37.4 °F 30.3 °F 35.6 °F 93% 30.09 in 10.0 mi North 10.4 mph 18.4 mph N/A   Overcast
4:55 PM 37.4 °F 29.3 °F 35.6 °F 93% 30.10 in 10.0 mi North 12.7 mph 17.3 mph N/A   Overcast
5:15 PM 37.4 °F 29.8 °F 35.6 °F 93% 30.12 in 10.0 mi North 11.5 mph 20.7 mph N/A   Overcast
5:35 PM 37.4 °F 28.2 °F 35.6 °F 93% 30.12 in 10.0 mi NNW 16.1 mph 23.0 mph N/A   Overcast
5:55 PM 37.4 °F 29.3 °F 35.6 °F 93% 30.14 in 7.0 mi North 12.7 mph 19.6 mph N/A   Overcast
6:15 PM 37.4 °F 28.5 °F 35.6 °F 93% 30.15 in 10.0 mi North 15.0 mph 21.9 mph N/A   Overcast
6:35 PM 37.4 °F 29.3 °F 35.6 °F 93% 30.16 in 5.0 mi North 12.7 mph - N/A   Overcast
6:55 PM 37.4 °F 29.8 °F 35.6 °F 93% 30.16 in 4.0 mi North 11.5 mph 16.1 mph N/A   Overcast
7:15 PM 37.4 °F 29.8 °F 35.6 °F 93% 30.15 in 5.0 mi North 11.5 mph 17.3 mph N/A   Overcast
7:35 PM 39.2 °F 32.0 °F 35.6 °F 87% 30.16 in 10.0 mi North 11.5 mph 18.4 mph N/A   Overcast
7:55 PM 39.2 °F 32.5 °F 35.6 °F 87% 30.16 in 10.0 mi North 10.4 mph 23.0 mph N/A   Overcast
8:15 PM 39.2 °F 31.6 °F 35.6 °F 87% 30.16 in 10.0 mi North 12.7 mph 19.6 mph N/A   Overcast
8:35 PM 39.2 °F 32.0 °F 35.6 °F 87% 30.16 in 10.0 mi North 11.5 mph 17.3 mph N/A   Overcast
8:55 PM 39.2 °F 32.5 °F 35.6 °F 87% 30.17 in 10.0 mi North 10.4 mph 17.3 mph N/A   Overcast
9:15 PM 41.0 °F 35.2 °F 35.6 °F 81% 30.18 in 10.0 mi North 9.2 mph 17.3 mph N/A   Overcast
9:35 PM 41.0 °F 35.2 °F 33.8 °F 76% 30.18 in 10.0 mi North 9.2 mph 19.6 mph N/A   Overcast
9:55 PM 41.0 °F 34.3 °F 33.8 °F 76% 30.18 in 10.0 mi North 11.5 mph 16.1 mph N/A   Overcast
10:15 PM 41.0 °F 34.7 °F 33.8 °F 76% 30.18 in 10.0 mi North 10.4 mph 17.3 mph N/A   Overcast
10:35 PM 41.0 °F 35.2 °F 33.8 °F 76% 30.19 in 10.0 mi North 9.2 mph - N/A   Overcast
10:55 PM 41.0 °F 33.9 °F 33.8 °F 76% 30.19 in 10.0 mi North 12.7 mph 18.4 mph N/A   Mostly Cloudy
11:15 PM 39.2 °F 33.0 °F 33.8 °F 81% 30.19 in 10.0 mi North 9.2 mph 17.3 mph N/A   Scattered Clouds
11:35 PM 39.2 °F 33.6 °F 32.0 °F 75% 30.20 in 10.0 mi North 8.1 mph - N/A   Mostly Cloudy
11:55 PM 41.0 °F 35.2 °F 32.0 °F 70% 30.21 in 10.0 mi North 9.2 mph 17.3 mph N/A   Overcast